Landels-Hill Big Creek Reserve Entrance, California Weather observations

Data are for 10 minute period ending at time listed.
 Day   Time   Solar   Ave.   Ave.  Ave.  Vector  Max.   Baro.   Total    
  of    of     Rad.   Air    Rel.  Wind   Wind   Wind  Press.  Precip.   
Year   Day            Temp.  Hum.  Speed  Dir.   Gust                    
2014   (PST)  Kw/m2    F      %     mph   deg.    mph    mb.     in.     
-------------------------------------------------------------------------
 326   13:50   0.14   59.8    97    0.5   191     1.5   1016.3    0.00 
 326   14:00   0.14   59.8    97    0.9   201     2.2   1016.2    0.01 
 326   14:10   0.11   59.6    97    0.8   206     2.5   1016.2    0.00 
 326   14:20   0.12   59.8    97    0.9   206     2.1   1016.1    0.00 
 326   14:30   0.11   59.6    97    0.7   208     2.4   1016.0    0.00 
 326   14:40   0.08   59.6    97    0.4   217     1.5   1015.8    0.00 
 326   14:50   0.05   59.5    97    0.5   196     1.5   1016.1    0.00 
 326   15:00   0.06   59.4    97    0.2   131     1.0   1016.3    0.01 
 326   15:10   0.10   59.7    97    0.7   189     2.8   1016.0    0.00 
 326   15:20   0.09   59.8    97    1.1   242     3.9   1015.9    0.00 
 326   15:30   0.06   59.5    97    0.4   122     2.3   1016.0    0.00 
 326   15:40   0.08   59.7    97    0.6   181     2.9   1016.0    0.00 
 326   15:50   0.05   59.8    97    0.6   222     1.8   1015.9    0.00 
 326   16:00   0.04   59.5    97    0.5   246     2.6   1015.8    0.00 
 326   16:10   0.03   59.8    97    0.0     0     0.0   1015.6    0.00 
 326   16:20   0.03   59.9    97    0.0     0     0.0   1015.6    0.00 
 326   16:30   0.05   60.0    97    0.5    30     1.9   1015.5    0.00 
 326   16:40   0.02   60.1    97    0.6   158     3.1   1015.5    0.00 
 326   16:50   0.01   59.8    97    0.0   151     1.0   1015.7    0.00 
 326   17:00   0.00   59.8    97    0.1   219     0.9   1015.8    0.00 
 326   17:10   0.00   59.8    97    0.0     0     0.0   1015.9    0.00 
 326   17:20   0.00   59.6    97    1.3    14     2.9   1015.7    0.01 
 326   17:30   0.00   59.1    97    1.3    47     2.9   1015.9    0.00 
 326   17:40   0.00   58.3    97    1.4    60     3.4   1016.0    0.00 
 326   17:50   0.00   57.8    97    1.0    69     2.0   1016.0    0.00 
 326   18:00   0.00   56.8    97    2.0    39     4.3   1016.1    0.00 
 326   18:10   0.00   56.1    97    2.3    42     4.6   1016.3    0.00 
 326   18:20   0.00   55.7    97    2.3    56     5.4   1016.3    0.00 
 326   18:30   0.00   55.3    97    2.0    54     5.0   1016.4    0.00 
 326   18:40   0.00   55.0    97    1.5    55     4.0   1016.6    0.00 
 326   18:50   0.00   54.6    97    1.9    49     4.7   1016.7    0.00 
 326   19:00   0.00   54.2    97    2.0    42     4.9   1016.8    0.00 
 326   19:10   0.00   53.9    96    2.2    33     7.2   1016.7    0.00 
 326   19:20   0.00   53.6    96    3.0    30     6.8   1016.8    0.00 
 326   19:30   0.00   53.5    96    2.6    32     6.1   1017.0    0.00 
 326   19:40   0.00   53.3    96    2.6    43     4.8   1017.1    0.00 
 326   19:50   0.00   53.0    95    1.9    39     5.1   1017.0    0.00 
 326   20:00   0.00   52.5    95    2.5    28     5.8   1017.2    0.00 
 326   20:10   0.00   52.4    94    2.4    24     5.5   1017.3    0.00 
 326   20:20   0.00   52.1    94    2.3    49     5.6   1017.2    0.00 
 326   20:30   0.00   51.7    94    2.1    49     5.3   1017.2    0.00 
 326   20:40   0.00   51.7    93    2.3    60     5.1   1017.2    0.00 
 326   20:50   0.00   52.1    90    1.8    84     5.2   1017.4    0.00 
 326   21:00   0.00   52.8    85    1.8   120     5.8   1017.4    0.00 
 326   21:10   0.00   54.9    75    3.0    93     5.7   1017.3    0.00 
 326   21:20   0.00   54.7    76    2.8    28     6.2   1017.4    0.00 
 326   21:30   0.00   52.3    84    2.2    52     6.1   1017.6    0.00 
 326   21:40   0.00   51.8    87    1.5    36     4.5   1017.7    0.00 
 326   21:50   0.00   51.2    88    2.2    37     4.7   1017.7    0.00 
 326   22:00   0.00   50.5    90    2.3    51     4.0   1017.9    0.00 
 326   22:10   0.00   50.2    91    2.4    47     4.7   1017.9    0.00 
 326   22:20   0.00   50.2    91    2.6    48     5.4   1018.0    0.00 
 326   22:30   0.00   50.1    92    2.6    44     7.0   1018.3    0.00 
 326   22:40   0.00   50.1    92    2.6    50     5.4   1018.2    0.00 
 326   22:50   0.00   49.9    92    2.6    52     6.5   1018.0    0.00 
 326   23:00   0.00   49.7    92    3.0    43     6.0   1018.1    0.00 
 326   23:10   0.00   49.7    93    2.5    52     6.1   1018.2    0.00 
 326   23:20   0.00   49.8    93    3.2    58     6.7   1018.2    0.00 
 326   23:30   0.00   50.2    92    2.4    41     7.1   1018.2    0.00 
 326   23:40   0.00   50.3    92    2.4    49     4.9   1018.2    0.00 
 326   23:50   0.00   50.5    91    3.1    43     8.1   1018.0    0.00 
 327    0:00   0.00   50.5    90    2.4    52     6.1   1017.9    0.00 
 327    0:10   0.00   50.3    90    2.5    35     6.5   1018.1    0.00 
 327    0:20   0.00   50.4    90    2.8    34     6.3   1018.1    0.00 
 327    0:30   0.00   50.5    90    2.8    47     7.4   1018.0    0.00 
 327    0:40   0.00   50.1    91    2.5    45     5.3   1017.9    0.00 
 327    0:50   0.00   49.9    92    2.5    48     6.8   1017.7    0.00 
 327    1:00   0.00   50.1    91    2.7    55     5.1   1017.7    0.00 
 327    1:10   0.00   50.2    91    2.6    50     5.8   1017.7    0.00 
 327    1:20   0.00   50.7    89    2.2    32     8.0   1017.9    0.00 
 327    1:30   0.00   51.2    86    2.9    53     5.9   1017.9    0.00 
 327    1:40   0.00   52.8    79    2.6    33     5.9   1018.0    0.00 
 327    1:50   0.00   51.0    85    2.3    29     4.9   1018.2    0.00 
 327    2:00   0.00   50.2    88    2.3    30     4.6   1018.1    0.00 
 327    2:10   0.00   50.1    89    2.2    19     4.5   1018.1    0.00 
 327    2:20   0.00   49.8    90    2.0    41     6.2   1018.0    0.00 
 327    2:30   0.00   49.7    90    2.6    52     5.6   1017.9    0.00 
 327    2:40   0.00   49.7    90    2.6    35     5.1   1017.9    0.00 
 327    2:50   0.00   49.5    90    1.6    34     4.0   1017.8    0.00 
 327    3:00   0.00   49.3    89    1.7    32     3.4   1017.9    0.00 
 327    3:10   0.00   49.4    89    1.9    50     5.0   1018.0    0.00 
 327    3:20   0.00   49.3    87    2.4    42     4.7   1018.0    0.00 
 327    3:30   0.00   49.5    84    2.6    46     5.0   1018.0    0.00 
 327    3:40   0.00   49.1    85    2.8    52     5.6   1018.1    0.00 
 327    3:50   0.00   49.0    85    2.7    46     5.9   1018.2    0.00 
 327    4:00   0.00   48.6    86    2.5    43     6.1   1018.3    0.00 
 327    4:10   0.00   48.4    87    2.8    36     7.2   1018.5    0.00 
 327    4:20   0.00   48.3    86    2.3    61     5.4   1018.6    0.00 
 327    4:30   0.00   48.1    86    2.8    41     6.0   1018.5    0.00 
 327    4:40   0.00   48.1    84    2.5    41     6.4   1018.5    0.00 
 327    4:50   0.00   47.9    84    3.4    59     7.2   1018.3    0.00 
 327    5:00   0.00   47.8    84    2.8    51     9.0   1018.2    0.00 
 327    5:10   0.00   47.8    82    2.8    42     5.6   1018.3    0.00 
 327    5:20   0.00   47.8    82    2.9    51     6.5   1018.5    0.00 
 327    5:30   0.00   47.6    81    2.6    60     4.7   1018.6    0.00 
 327    5:40   0.00   47.3    82    2.3    44     4.8   1018.7    0.00 
 327    5:50   0.00   47.3    82    2.8    54     6.5   1018.9    0.00 
 327    6:00   0.00   47.8    77    3.4    47     6.8   1018.9    0.00 
 327    6:10   0.00   48.0    76    3.1    34     7.3   1018.8    0.00 
 327    6:20   0.00   48.0    75    3.1    54     6.7   1018.9    0.00 
 327    6:30   0.00   47.7    76    2.5    60     5.8   1019.2    0.00 
 327    6:40   0.00   47.7    75    3.4    48     7.0   1019.4    0.00 
 327    6:50   0.00   47.8    74    2.9    43     6.4   1019.3    0.00 
 327    7:00   0.01   47.6    75    3.0    48     6.5   1019.3    0.00 
 327    7:10   0.01   47.4    76    3.7    52     7.7   1019.2    0.00 
 327    7:20   0.01   48.0    72    3.0    39     6.1   1019.1    0.00 
 327    7:30   0.01   47.6    75    2.7    51     5.7   1019.2    0.00 
 327    7:40   0.02   47.6    75    3.2    40     6.4   1019.0    0.00 
 327    7:50   0.03   47.7    75    3.0    51     5.8   1018.8    0.00 
 327    8:00   0.03   47.4    78    2.7    27     5.0   1019.3    0.00 
 327    8:10   0.03   47.5    78    2.8    33     6.4   1019.5    0.00 
 327    8:20   0.03   48.1    76    2.5    42     5.4   1020.0    0.00 
 327    8:30   0.03   48.4    76    2.9    36     7.5   1020.3    0.00 
 327    8:40   0.03   48.9    75    2.2    30     7.2   1020.6    0.00 
 327    8:50   0.03   49.2    76    3.0    38     6.2   1020.8    0.00 
 327    9:00   0.04   50.5    72    2.5    39     5.0   1020.8    0.00 
 327    9:10   0.04   50.9    72    1.7    23     4.2   1020.9    0.00 
 327    9:20   0.05   51.4    72    2.5    19     4.8   1021.1    0.00 
 327    9:30   0.04   51.7    73    2.2    19     5.3   1021.0    0.00 
 327    9:40   0.04   52.6    70    2.4    40     4.5   1020.8    0.00 
 327    9:50   0.03   54.1    66    1.5    46     3.6   1020.7    0.00 
 327   10:00   0.03   54.9    66    1.2    41     2.4   1020.8    0.00 
 327   10:10   0.04   55.0    68    0.9    31     2.3   1021.0    0.00 
 327   10:20   0.04   55.5    68    0.9    28     2.2   1021.1    0.00 
 327   10:30   0.04   56.9    65    1.1    70     2.4   1021.2    0.00 
 327   10:40   0.05   59.3    62    1.7    68     3.1   1021.3    0.00 
 327   10:50   0.47   61.7    60    2.0   347     4.3   1021.4    0.00 
 327   11:00   0.50   63.4    58    2.7   318     6.5   1021.0    0.00 
 327   11:10   0.51   63.6    62    3.8   302    10.1   1020.8    0.00 
 327   11:20   0.52   63.0    69    3.8   300    10.2   1021.0    0.00 
 327   11:30   0.52   63.1    73    3.5   307     8.2   1021.2    0.00 
 327   11:40   0.51   62.9    75    3.2   306     8.3   1021.2    0.00 
 327   11:50   0.53   63.2    74    3.0   314     6.4   1021.1    0.00 
 327   12:00   0.53   63.2    75    3.4   324     7.2   1021.1    0.00 
 327   12:10   0.53   63.0    76    3.8   303    11.1   1021.1    0.00 
 327   12:20   0.49   62.9    77    3.7   331     7.3   1021.0    0.00 
 327   12:30   0.47   62.8    77    3.4   311     8.5   1020.7    0.00 
 327   12:40   0.53   62.8    76    3.5   318     9.3   1020.8    0.00 
 327   12:50   0.50   63.0    76    3.0   324     6.3   1020.9    0.00 
 327   13:00   0.46   63.4    76    2.5   326     5.1   1020.9    0.00 
 327   13:10   0.45   63.1    75    2.4   314     5.6   1021.0    0.00 
 327   13:20   0.40   63.2    76    2.0   298     6.4   1021.0    0.00 
 327   13:30   0.32   62.6    78    1.6   293     5.1   1020.9    0.00 
 327   13:40   0.36   62.7    78    1.5   285     4.4   1020.8    0.00 

Return to Big Creek Reserve Entrance graphs page.


Western Regional Climate Center,wrcc@dri.edu